Airfield :
LOGIN :

Register | Disclaimer

   EN    FR    IT 

 










Legend :    VFR   Marginal VFR   IFR   Intensive IFR   Very Intensive IFR
Visi :
Ceiling :
>= 8 km
>= 3000ft
5 to 8 km
1000 to 3000 ft
1500m to 5 km
500 to 1000 ft
800 to 1500m
200 to 500 ft
< 800m
< 200 ft
Symbols :   Thunderstorms  Fog  Heavy snow  Heavy precipitations  Wind > 20 kt
SIGMETs :     Misc.  Thunderstorms  Icing  Turbulence  Mountain Waves  Volcanic Ashes






- Airport Elevation : 459 ft
- IATA code : CER


LFRC - Cherbourg / Maupertus

CURRENT METAR :
  • 270830Z AUTO 29026KT 9999 OVC005 08/07 Q0990 TEMPO 4000 SHRA BKN012 BECMG 34025G42KT

EXPIRED METARs :
  • 270800Z AUTO 27024KT 9000 OVC006 09/09 Q0989 TEMPO 4000 SHRA BKN012 BECMG 34025G42KT
  • 270730Z AUTO 27027G39KT 3500 DZ BR OVC006 10/09 Q0989 TEMPO SHRA BKN012 BECMG 34025G42KT
  • 270700Z AUTO 26026KT 4500 -RA BR OVC006 10/09 Q0989 TEMPO 9999 NSW SCT010 BKN020 BECMG 34025G42KT
  • 270630Z AUTO 25020KT 5000 -DZ BR OVC006 10/09 Q0989 TEMPO SHRA SCT010 BKN020 BECMG 34025G42KT
  • 270600Z AUTO 22017KT 3000 -RA BR BKN007/// BKN011/// OVC017/// ///TCU 08/08 Q0990 BECMG 27020G35KT 9999 NSW SCT010 BKN020
  • 270530Z AUTO 20016KT 5000 -RA BR OVC005/// ///TCU 07/06 Q0991 BECMG 27020G35KT SCT010 BKN020

TAF AMD TAF LFRC
Valid from the 27 at 07:00 until the 27 at 15:00 UTC


270749Z 2707/2715 27020G35KT 4000 RA BKN005
BECMG 2707/2708 9999 NSW SCT010 BKN020
BECMG 2708/2710 34025G42KT
TEMPO 2708/2712 4000 SHRA BKN012
BECMG 2713/2715 31018G30KT



MET'MAP, your aeronautical weather chart ! - Copyright ORBIFLY December 2007 - Disclaimer

ORBIFLY MET'MAP TEAM :

Programming & Development : Alexandra Zaïnal
Concept & original design : Baudouin d'Aumeries
Assistance for programming : Marc-Olivier Méhu
Technical & hardware support : Manuel Goepfert

Contact : metmap@orbifly.com




SOURCES & CREDITS :

   NOAA